Time,TemperatureF,DewpointF,PressureIn,WindDirection,WindDirectionDegrees,WindSpeedMPH,WindSpeedGustMPH,Humidity,HourlyPrecipIn,Conditions,Clouds,dailyrainin,SoftwareType,DateUTC
2013-01-16 00:00:00,31.8,3.1,30.48,South,186,0.0,0.0,29,0.00,,,0.00,Wunderground v.1.15,2013-01-16 08:00:00,
2013-01-16 00:06:00,31.8,3.1,30.48,South,186,0.0,0.0,29,0.00,,,0.00,Wunderground v.1.15,2013-01-16 08:06:00,
2013-01-16 00:15:00,32.1,2.6,30.47,South,186,0.0,0.0,28,0.00,,,0.00,Wunderground v.1.15,2013-01-16 08:15:00,
2013-01-16 00:20:00,32.1,2.6,30.47,South,186,0.0,0.0,28,0.00,,,0.00,Wunderground v.1.15,2013-01-16 08:20:00,
2013-01-16 00:30:00,31.9,2.4,30.47,South,186,0.0,0.0,28,0.00,,,0.00,Wunderground v.1.15,2013-01-16 08:30:00,
2013-01-16 00:40:00,31.8,2.3,30.47,South,186,0.0,0.0,28,0.00,,,0.00,Wunderground v.1.15,2013-01-16 08:40:00,
2013-01-16 00:45:00,32.2,2.7,30.47,South,186,0.0,0.0,28,0.00,,,0.00,Wunderground v.1.15,2013-01-16 08:45:00,
2013-01-16 00:55:00,32.7,3.1,30.47,South,186,0.0,0.0,28,0.00,,,0.00,Wunderground v.1.15,2013-01-16 08:55:00,
2013-01-16 01:05:00,32.5,2.2,30.48,South,186,0.0,0.0,27,0.00,,,0.00,Wunderground v.1.15,2013-01-16 09:05:00,
2013-01-16 01:15:00,32.4,2.9,30.48,South,186,0.0,0.0,28,0.00,,,0.00,Wunderground v.1.15,2013-01-16 09:15:00,
2013-01-16 01:25:00,32.2,3.4,30.48,South,186,0.0,0.0,29,0.00,,,0.00,Wunderground v.1.15,2013-01-16 09:25:00,
2013-01-16 01:30:00,32.2,2.7,30.48,South,186,0.0,0.0,28,0.00,,,0.00,Wunderground v.1.15,2013-01-16 09:30:00,
2013-01-16 01:40:00,32.8,3.2,30.48,South,186,0.0,0.0,28,0.00,,,0.00,Wunderground v.1.15,2013-01-16 09:40:00,
2013-01-16 01:45:00,32.8,4.0,30.48,South,186,0.0,0.0,29,0.00,,,0.00,Wunderground v.1.15,2013-01-16 09:45:00,
2013-01-16 01:55:00,32.7,3.1,30.48,South,186,0.0,0.0,28,0.00,,,0.00,Wunderground v.1.15,2013-01-16 09:55:00,
2013-01-16 02:00:00,32.1,2.6,30.48,South,186,0.0,0.0,28,0.00,,,0.00,Wunderground v.1.15,2013-01-16 10:00:00,
2013-01-16 02:05:00,31.3,2.7,30.48,South,186,0.0,0.0,29,0.00,,,0.00,Wunderground v.1.15,2013-01-16 10:05:00,
2013-01-16 02:15:00,31.0,6.5,30.47,South,185,0.0,0.0,35,0.00,,,0.00,Wunderground v.1.15,2013-01-16 10:15:00,
2013-01-16 02:20:00,31.0,6.5,30.47,South,185,0.0,0.0,35,0.00,,,0.00,Wunderground v.1.15,2013-01-16 10:20:00,
2013-01-16 02:30:00,31.3,3.4,30.47,South,185,0.0,0.0,30,0.00,,,0.00,Wunderground v.1.15,2013-01-16 10:30:00,
2013-01-16 02:40:00,31.3,3.4,30.47,South,185,0.0,0.0,30,0.00,,,0.00,Wunderground v.1.15,2013-01-16 10:40:00,
2013-01-16 02:45:00,31.6,2.9,30.47,South,185,0.0,0.0,29,0.00,,,0.00,Wunderground v.1.15,2013-01-16 10:45:00,
2013-01-16 02:55:00,31.3,3.4,30.47,South,185,0.0,0.0,30,0.00,,,0.00,Wunderground v.1.15,2013-01-16 10:55:00,
2013-01-16 03:05:00,31.2,4.0,30.47,South,185,0.0,0.0,31,0.00,,,0.00,Wunderground v.1.15,2013-01-16 11:05:00,
2013-01-16 03:15:00,31.5,3.6,30.47,South,185,0.0,0.0,30,0.00,,,0.00,Wunderground v.1.15,2013-01-16 11:15:00,
2013-01-16 03:25:00,31.5,2.8,30.47,South,190,0.0,0.0,29,0.00,,,0.00,Wunderground v.1.15,2013-01-16 11:25:00,
2013-01-16 03:35:00,30.1,3.1,30.47,South,190,0.0,0.0,31,0.00,,,0.00,Wunderground v.1.15,2013-01-16 11:35:00,
2013-01-16 03:40:00,30.6,3.5,30.47,South,190,0.0,0.0,31,0.00,,,0.00,Wunderground v.1.15,2013-01-16 11:40:00,
2013-01-16 03:45:00,30.9,3.0,30.47,South,190,0.0,0.0,30,0.00,,,0.00,Wunderground v.1.15,2013-01-16 11:45:00,
2013-01-16 03:55:00,31.0,3.1,30.47,South,190,0.0,0.0,30,0.00,,,0.00,Wunderground v.1.15,2013-01-16 11:55:00,
2013-01-16 04:05:00,30.7,2.1,30.46,SW,236,0.0,0.0,29,0.00,,,0.00,Wunderground v.1.15,2013-01-16 12:05:00,
2013-01-16 04:15:00,31.0,3.1,30.46,SW,236,0.0,0.0,30,0.00,,,0.00,Wunderground v.1.15,2013-01-16 12:15:00,
2013-01-16 04:25:00,31.2,3.3,30.46,SW,236,0.0,0.0,30,0.00,,,0.00,Wunderground v.1.15,2013-01-16 12:25:00,
2013-01-16 04:30:00,30.9,3.8,30.46,SW,236,0.0,0.0,31,0.00,,,0.00,Wunderground v.1.15,2013-01-16 12:30:00,
2013-01-16 04:40:00,30.1,3.7,30.46,SSE,157,0.0,0.0,32,0.00,,,0.00,Wunderground v.1.15,2013-01-16 12:40:00,
2013-01-16 04:50:00,28.7,3.2,30.46,SSE,158,0.0,0.0,33,0.00,,,0.00,Wunderground v.1.15,2013-01-16 12:50:00,
2013-01-16 04:55:00,28.4,3.6,30.46,SSE,158,0.0,0.0,34,0.00,,,0.00,Wunderground v.1.15,2013-01-16 12:55:00,
2013-01-16 05:05:00,28.5,3.6,30.46,SSE,158,0.0,0.0,34,0.00,,,0.00,Wunderground v.1.15,2013-01-16 13:05:00,
2013-01-16 05:15:00,28.4,3.6,30.45,SSE,158,0.0,0.0,34,0.00,,,0.00,Wunderground v.1.15,2013-01-16 13:15:00,
2013-01-16 05:25:00,28.1,4.5,30.45,SSE,157,0.0,0.0,36,0.00,,,0.00,Wunderground v.1.15,2013-01-16 13:25:00,
2013-01-16 05:30:00,27.8,3.6,30.45,SSE,157,0.0,0.0,35,0.00,,,0.00,Wunderground v.1.15,2013-01-16 13:30:00,
2013-01-16 05:40:00,27.0,3.5,30.45,SSE,157,0.0,0.0,36,0.00,,,0.00,Wunderground v.1.15,2013-01-16 13:40:00,
2013-01-16 05:50:00,26.9,4.6,30.46,SSE,157,0.0,0.0,38,0.00,,,0.00,Wunderground v.1.15,2013-01-16 13:50:00,
2013-01-16 05:55:00,26.9,4.1,30.46,SSE,157,0.0,0.0,37,0.00,,,0.00,Wunderground v.1.15,2013-01-16 13:55:00,
2013-01-16 06:05:00,26.1,1.5,30.46,SSE,157,0.0,0.0,34,0.00,,,0.00,Wunderground v.1.15,2013-01-16 14:05:00,
2013-01-16 06:15:00,25.6,2.9,30.47,SSE,157,0.0,0.0,37,0.00,,,0.00,Wunderground v.1.15,2013-01-16 14:15:00,
2013-01-16 06:25:00,25.7,3.6,30.47,SSE,157,0.0,0.0,38,0.00,,,0.00,Wunderground v.1.15,2013-01-16 14:25:00,
2013-01-16 06:35:00,25.0,1.8,30.47,SSE,158,0.0,0.0,36,0.00,,,0.00,Wunderground v.1.15,2013-01-16 14:35:00,
2013-01-16 06:40:00,25.1,3.0,30.47,SSE,158,0.0,0.0,38,0.00,,,0.00,Wunderground v.1.15,2013-01-16 14:40:00,
2013-01-16 06:45:00,25.3,3.8,30.47,SSE,158,0.0,0.0,39,0.00,,,0.00,Wunderground v.1.15,2013-01-16 14:45:00,
2013-01-16 06:55:00,25.8,4.2,30.47,SSE,159,0.0,0.0,39,0.00,,,0.00,Wunderground v.1.15,2013-01-16 14:55:00,
2013-01-16 07:00:00,26.1,4.5,30.47,SSE,159,0.0,0.0,39,0.00,,,0.00,Wunderground v.1.15,2013-01-16 15:00:00,
2013-01-16 07:05:00,26.4,4.2,30.47,SSE,159,0.0,0.0,38,0.00,,,0.00,Wunderground v.1.15,2013-01-16 15:05:00,
2013-01-16 07:15:00,26.6,3.8,30.48,SSE,159,0.0,0.0,37,0.00,,,0.00,Wunderground v.1.15,2013-01-16 15:15:00,
2013-01-16 07:25:00,26.9,4.1,30.48,SSE,159,0.0,0.0,37,0.00,,,0.00,Wunderground v.1.15,2013-01-16 15:25:00,
2013-01-16 07:35:00,27.3,4.4,30.48,SSE,159,0.0,0.0,37,0.00,,,0.00,Wunderground v.1.15,2013-01-16 15:35:00,
2013-01-16 07:40:00,27.6,4.7,30.48,SSE,159,0.0,0.0,37,0.00,,,0.00,Wunderground v.1.15,2013-01-16 15:40:00,
2013-01-16 07:50:00,28.7,5.1,30.48,SSE,159,0.0,0.0,36,0.00,,,0.00,Wunderground v.1.15,2013-01-16 15:50:00,
2013-01-16 07:55:00,29.3,5.6,30.48,SSE,159,0.0,0.0,36,0.00,,,0.00,Wunderground v.1.15,2013-01-16 15:55:00,
2013-01-16 08:05:00,30.3,6.5,30.49,SSE,159,0.0,0.0,36,0.00,,,0.00,Wunderground v.1.15,2013-01-16 16:05:00,
2013-01-16 08:15:00,31.6,5.1,30.48,SSE,159,0.0,0.0,32,0.00,,,0.00,Wunderground v.1.15,2013-01-16 16:15:00,
2013-01-16 08:20:00,32.2,4.9,30.48,SSE,159,0.0,0.0,31,0.00,,,0.00,Wunderground v.1.15,2013-01-16 16:20:00,
2013-01-16 08:25:00,32.8,5.4,30.48,SSE,159,0.0,0.0,31,0.00,,,0.00,Wunderground v.1.15,2013-01-16 16:25:00,
2013-01-16 08:35:00,33.7,4.8,30.49,SSE,159,0.0,0.0,29,0.00,,,0.00,Wunderground v.1.15,2013-01-16 16:35:00,
2013-01-16 08:40:00,33.8,3.3,30.49,SSE,159,0.0,0.0,27,0.00,,,0.00,Wunderground v.1.15,2013-01-16 16:40:00,
2013-01-16 08:50:00,33.1,2.7,30.49,SSE,158,0.0,0.0,27,0.00,,,0.00,Wunderground v.1.15,2013-01-16 16:50:00,
2013-01-16 08:55:00,33.4,3.7,30.49,SSE,158,0.0,0.0,28,0.00,,,0.00,Wunderground v.1.15,2013-01-16 16:55:00,
2013-01-16 09:05:00,34.3,4.5,30.49,SSE,158,0.0,0.0,28,0.00,,,0.00,Wunderground v.1.15,2013-01-16 17:05:00,
2013-01-16 09:15:00,35.3,4.6,30.50,SSE,158,0.0,0.0,27,0.00,,,0.00,Wunderground v.1.15,2013-01-16 17:15:00,
2013-01-16 09:20:00,36.0,5.2,30.50,SSE,158,0.0,0.0,27,0.00,,,0.00,Wunderground v.1.15,2013-01-16 17:20:00,
2013-01-16 09:25:00,36.6,4.9,30.50,SSE,158,0.0,0.0,26,0.00,,,0.00,Wunderground v.1.15,2013-01-16 17:25:00,
2013-01-16 09:35:00,37.8,5.1,30.50,SSE,158,0.0,0.0,25,0.00,,,0.00,Wunderground v.1.15,2013-01-16 17:35:00,
2013-01-16 09:40:00,38.3,6.4,30.50,SSE,158,0.0,0.0,26,0.00,,,0.00,Wunderground v.1.15,2013-01-16 17:40:00,
2013-01-16 09:50:00,39.5,6.5,30.50,SSE,158,0.0,0.0,25,0.00,,,0.00,Wunderground v.1.15,2013-01-16 17:50:00,
2013-01-16 09:55:00,39.9,6.9,30.50,SSE,158,0.0,0.0,25,0.00,,,0.00,Wunderground v.1.15,2013-01-16 17:55:00,
2013-01-16 10:05:00,40.3,6.3,30.49,SSE,158,0.0,0.0,24,0.00,,,0.00,Wunderground v.1.15,2013-01-16 18:05:00,
2013-01-16 10:15:00,40.8,6.7,30.48,SSE,157,0.0,0.0,24,0.00,,,0.00,Wunderground v.1.15,2013-01-16 18:15:00,
2013-01-16 10:20:00,41.5,6.4,30.48,SSE,157,0.0,0.0,23,0.00,,,0.00,Wunderground v.1.15,2013-01-16 18:20:00,
2013-01-16 10:25:00,41.9,6.7,30.48,SSE,157,0.0,0.0,23,0.00,,,0.00,Wunderground v.1.15,2013-01-16 18:25:00,
2013-01-16 10:35:00,42.5,6.3,30.48,NNW,336,0.0,0.0,22,0.00,,,0.00,Wunderground v.1.15,2013-01-16 18:35:00,
2013-01-16 10:40:00,42.8,6.5,30.48,NNW,336,0.0,0.0,22,0.00,,,0.00,Wunderground v.1.15,2013-01-16 18:40:00,
2013-01-16 10:45:00,43.1,6.8,30.47,North,355,0.0,0.0,22,0.00,,,0.00,Wunderground v.1.15,2013-01-16 18:45:00,
2013-01-16 10:55:00,43.1,6.8,30.47,North,350,0.0,0.0,22,0.00,,,0.00,Wunderground v.1.15,2013-01-16 18:55:00,
2013-01-16 11:00:00,43.3,6.9,30.46,North,5,0.0,0.0,22,0.00,,,0.00,Wunderground v.1.15,2013-01-16 19:00:00,
2013-01-16 11:05:00,43.9,7.4,30.46,North,5,0.0,0.0,22,0.00,,,0.00,Wunderground v.1.15,2013-01-16 19:05:00,
2013-01-16 11:15:00,44.9,7.3,30.44,North,360,0.0,0.0,21,0.00,,,0.00,Wunderground v.1.15,2013-01-16 19:15:00,
2013-01-16 11:20:00,45.4,6.6,30.44,North,5,0.0,0.0,20,0.00,,,0.00,Wunderground v.1.15,2013-01-16 19:20:00,
2013-01-16 11:30:00,45.7,6.8,30.43,NNE,28,0.0,0.0,20,0.00,,,0.00,Wunderground v.1.15,2013-01-16 19:30:00,
2013-01-16 11:40:00,46.2,8.3,30.43,NNE,32,0.0,0.0,21,0.00,,,0.00,Wunderground v.1.15,2013-01-16 19:40:00,
2013-01-16 11:45:00,46.5,7.5,30.42,NE,49,0.0,0.0,20,0.00,,,0.00,Wunderground v.1.15,2013-01-16 19:45:00,
2013-01-16 11:55:00,46.8,7.8,30.42,NNE,28,0.0,0.0,20,0.00,,,0.00,Wunderground v.1.15,2013-01-16 19:55:00,
2013-01-16 12:00:00,47.3,10.3,30.41,NNE,28,0.0,0.0,22,0.00,,,0.00,Wunderground v.1.15,2013-01-16 20:00:00,
2013-01-16 12:06:00,48.0,8.8,30.41,NNE,28,0.0,0.0,20,0.00,,,0.00,Wunderground v.1.15,2013-01-16 20:06:00,
2013-01-16 12:15:00,48.5,8.0,30.40,NNE,26,0.0,0.0,19,0.00,,,0.00,Wunderground v.1.15,2013-01-16 20:15:00,
2013-01-16 12:20:00,48.8,9.4,30.40,North,355,0.0,0.0,20,0.00,,,0.00,Wunderground v.1.15,2013-01-16 20:20:00,
2013-01-16 12:25:00,48.8,11.6,30.40,North,355,0.0,0.0,22,0.00,,,0.00,Wunderground v.1.15,2013-01-16 20:25:00,
2013-01-16 12:35:00,49.5,11.1,30.39,North,355,0.0,0.0,21,0.00,,,0.00,Wunderground v.1.15,2013-01-16 20:35:00,
2013-01-16 12:45:00,50.1,10.5,30.37,North,360,0.0,0.0,20,0.00,,,0.00,Wunderground v.1.15,2013-01-16 20:45:00,
2013-01-16 12:50:00,50.5,12.0,30.37,NNW,348,0.0,0.0,21,0.00,,,0.00,Wunderground v.1.15,2013-01-16 20:50:00,
2013-01-16 13:00:00,51.3,11.5,30.36,NW,310,0.0,0.0,20,0.00,,,0.00,Wunderground v.1.15,2013-01-16 21:00:00,
2013-01-16 13:05:00,51.6,11.8,30.36,NW,310,0.0,0.0,20,0.00,,,0.00,Wunderground v.1.15,2013-01-16 21:05:00,
2013-01-16 13:15:00,52.0,10.9,30.35,NW,325,0.0,0.0,19,0.00,,,0.00,Wunderground v.1.15,2013-01-16 21:15:00,
2013-01-16 13:20:00,52.3,12.4,30.35,North,9,0.0,0.0,20,0.00,,,0.00,Wunderground v.1.15,2013-01-16 21:20:00,
2013-01-16 13:30:00,52.6,12.6,30.34,North,360,0.0,0.0,20,0.00,,,0.00,Wunderground v.1.15,2013-01-16 21:30:00,
2013-01-16 13:35:00,52.6,11.4,30.34,North,360,0.0,0.0,19,0.00,,,0.00,Wunderground v.1.15,2013-01-16 21:35:00,
2013-01-16 13:45:00,53.6,12.3,30.33,North,360,0.0,0.0,19,0.00,,,0.00,Wunderground v.1.15,2013-01-16 21:45:00,
2013-01-16 13:55:00,54.1,12.7,30.33,NNE,15,0.0,0.0,19,0.00,,,0.00,Wunderground v.1.15,2013-01-16 21:55:00,
2013-01-16 14:00:00,54.4,12.9,30.33,NE,55,0.0,0.0,19,0.00,,,0.00,Wunderground v.1.15,2013-01-16 22:00:00,
2013-01-16 14:05:00,54.7,12.0,30.33,North,11,0.0,0.0,18,0.00,,,0.00,Wunderground v.1.15,2013-01-16 22:05:00,
2013-01-16 14:15:00,55.3,12.4,30.33,NNW,348,0.0,0.0,18,0.00,,,0.00,Wunderground v.1.15,2013-01-16 22:15:00,
2013-01-16 14:20:00,55.1,12.3,30.33,East,80,0.0,0.0,18,0.00,,,0.00,Wunderground v.1.15,2013-01-16 22:20:00,
2013-01-16 14:30:00,55.6,12.7,30.33,NNE,22,0.0,0.0,18,0.00,,,0.00,Wunderground v.1.15,2013-01-16 22:30:00,
2013-01-16 14:35:00,55.6,12.7,30.33,NW,308,0.0,2.0,18,0.00,,,0.00,Wunderground v.1.15,2013-01-16 22:35:00,
2013-01-16 14:45:00,55.7,12.8,30.33,North,9,0.0,0.0,18,0.00,,,0.00,Wunderground v.1.15,2013-01-16 22:45:00,
2013-01-16 14:50:00,55.6,12.7,30.33,NNE,30,0.0,0.0,18,0.00,,,0.00,Wunderground v.1.15,2013-01-16 22:50:00,
2013-01-16 15:00:00,55.7,12.8,30.32,NNE,22,0.0,3.0,18,0.00,,,0.00,Wunderground v.1.15,2013-01-16 23:00:00,
2013-01-16 15:05:00,55.6,12.7,30.32,NE,37,0.0,3.0,18,0.00,,,0.00,Wunderground v.1.15,2013-01-16 23:05:00,
2013-01-16 15:15:00,55.9,12.9,30.33,NNE,26,0.0,0.0,18,0.00,,,0.00,Wunderground v.1.15,2013-01-16 23:15:00,
2013-01-16 15:20:00,55.9,12.9,30.33,NNE,13,0.0,0.0,18,0.00,,,0.00,Wunderground v.1.15,2013-01-16 23:20:00,
2013-01-16 15:25:00,56.2,13.2,30.33,NNE,12,0.0,0.0,18,0.00,,,0.00,Wunderground v.1.15,2013-01-16 23:25:00,
2013-01-16 15:35:00,55.9,14.2,30.33,NNE,12,0.0,1.0,19,0.00,,,0.00,Wunderground v.1.15,2013-01-16 23:35:00,
2013-01-16 15:40:00,55.7,14.0,30.33,ENE,58,0.0,0.0,19,0.00,,,0.00,Wunderground v.1.15,2013-01-16 23:40:00,
2013-01-16 15:50:00,55.7,14.0,30.33,North,355,0.0,0.0,19,0.00,,,0.00,Wunderground v.1.15,2013-01-16 23:50:00,
2013-01-16 16:00:00,55.4,13.8,30.33,NE,34,0.0,0.0,19,0.00,,,0.00,Wunderground v.1.15,2013-01-17 00:00:00,
2013-01-16 16:05:00,55.0,13.4,30.33,North,5,0.0,0.0,19,0.00,,,0.00,Wunderground v.1.15,2013-01-17 00:05:00,
2013-01-16 16:15:00,54.8,13.3,30.33,NNE,28,0.0,0.0,19,0.00,,,0.00,Wunderground v.1.15,2013-01-17 00:15:00,
2013-01-16 16:20:00,54.7,13.2,30.33,NNE,20,0.0,0.0,19,0.00,,,0.00,Wunderground v.1.15,2013-01-17 00:20:00,
2013-01-16 16:25:00,54.4,12.9,30.33,NNE,28,0.0,0.0,19,0.00,,,0.00,Wunderground v.1.15,2013-01-17 00:25:00,
2013-01-16 16:35:00,53.9,12.5,30.33,NNE,29,0.0,0.0,19,0.00,,,0.00,Wunderground v.1.15,2013-01-17 00:35:00,
2013-01-16 16:40:00,53.6,12.3,30.33,NNE,29,0.0,0.0,19,0.00,,,0.00,Wunderground v.1.15,2013-01-17 00:40:00,
2013-01-16 16:50:00,52.6,12.6,30.33,NNE,29,0.0,0.0,20,0.00,,,0.00,Wunderground v.1.15,2013-01-17 00:50:00,
2013-01-16 16:55:00,52.0,13.2,30.33,NNE,29,0.0,0.0,21,0.00,,,0.00,Wunderground v.1.15,2013-01-17 00:55:00,
2013-01-16 17:00:00,51.4,12.7,30.33,NNE,29,0.0,0.0,21,0.00,,,0.00,Wunderground v.1.15,2013-01-17 01:00:00,
2013-01-16 17:05:00,50.8,13.3,30.33,NNE,29,0.0,0.0,22,0.00,,,0.00,Wunderground v.1.15,2013-01-17 01:05:00,
2013-01-16 17:15:00,49.8,13.4,30.33,NNE,29,0.0,0.0,23,0.00,,,0.00,Wunderground v.1.15,2013-01-17 01:15:00,
2013-01-16 17:20:00,49.4,13.1,30.33,NNE,29,0.0,0.0,23,0.00,,,0.00,Wunderground v.1.15,2013-01-17 01:20:00,
2013-01-16 17:30:00,47.9,11.8,30.34,NNE,29,0.0,0.0,23,0.00,,,0.00,Wunderground v.1.15,2013-01-17 01:30:00,
2013-01-16 17:40:00,46.5,11.6,30.34,NNE,29,0.0,0.0,24,0.00,,,0.00,Wunderground v.1.15,2013-01-17 01:40:00,
2013-01-16 17:45:00,45.8,11.0,30.34,NNE,29,0.0,0.0,24,0.00,,,0.00,Wunderground v.1.15,2013-01-17 01:45:00,
2013-01-16 17:55:00,44.9,11.1,30.34,NNE,29,0.0,0.0,25,0.00,,,0.00,Wunderground v.1.15,2013-01-17 01:55:00,
2013-01-16 18:05:00,44.3,10.6,30.34,NNE,29,0.0,0.0,25,0.00,,,0.00,Wunderground v.1.15,2013-01-17 02:05:00,
2013-01-16 18:15:00,43.8,11.1,30.34,NNE,29,0.0,0.0,26,0.00,,,0.00,Wunderground v.1.15,2013-01-17 02:15:00,
2013-01-16 18:25:00,43.2,10.6,30.34,NNE,29,0.0,0.0,26,0.00,,,0.00,Wunderground v.1.15,2013-01-17 02:25:00,
2013-01-16 18:30:00,43.3,10.7,30.34,NNE,29,0.0,0.0,26,0.00,,,0.00,Wunderground v.1.15,2013-01-17 02:30:00,
2013-01-16 18:40:00,43.3,11.5,30.34,NNE,29,0.0,0.0,27,0.00,,,0.00,Wunderground v.1.15,2013-01-17 02:40:00,
2013-01-16 18:50:00,43.1,11.3,30.34,NNE,29,0.0,0.0,27,0.00,,,0.00,Wunderground v.1.15,2013-01-17 02:50:00,
2013-01-16 18:55:00,42.9,11.2,30.34,NNE,29,0.0,0.0,27,0.00,,,0.00,Wunderground v.1.15,2013-01-17 02:55:00,
2013-01-16 19:05:00,42.1,11.3,30.35,NNE,29,0.0,0.0,28,0.00,,,0.00,Wunderground v.1.15,2013-01-17 03:05:00,
2013-01-16 19:15:00,41.5,9.9,30.35,NNE,29,0.0,0.0,27,0.00,,,0.00,Wunderground v.1.15,2013-01-17 03:15:00,
2013-01-16 19:25:00,41.5,10.8,30.35,NNE,29,0.0,0.0,28,0.00,,,0.00,Wunderground v.1.15,2013-01-17 03:25:00,
2013-01-16 19:30:00,41.3,11.4,30.35,NNE,29,0.0,0.0,29,0.00,,,0.00,Wunderground v.1.15,2013-01-17 03:30:00,
2013-01-16 19:40:00,41.1,11.2,30.35,NNE,29,0.0,0.0,29,0.00,,,0.00,Wunderground v.1.15,2013-01-17 03:40:00,
2013-01-16 19:45:00,41.1,11.2,30.35,NNE,29,0.0,0.0,29,0.00,,,0.00,Wunderground v.1.15,2013-01-17 03:45:00,
2013-01-16 19:55:00,41.3,10.6,30.35,NNE,29,0.0,0.0,28,0.00,,,0.00,Wunderground v.1.15,2013-01-17 03:55:00,
2013-01-16 20:00:00,41.3,10.6,30.34,NNE,29,0.0,0.0,28,0.00,,,0.00,Wunderground v.1.15,2013-01-17 04:00:00,
2013-01-16 20:05:00,40.9,10.2,30.34,NNE,29,0.0,0.0,28,0.00,,,0.00,Wunderground v.1.15,2013-01-17 04:05:00,
2013-01-16 20:15:00,40.9,11.0,30.34,NNE,29,0.0,0.0,29,0.00,,,0.00,Wunderground v.1.15,2013-01-17 04:15:00,
2013-01-16 20:20:00,40.9,11.0,30.34,NNE,29,0.0,0.0,29,0.00,,,0.00,Wunderground v.1.15,2013-01-17 04:20:00,
2013-01-16 20:30:00,40.8,10.9,30.34,NNE,29,0.0,0.0,29,0.00,,,0.00,Wunderground v.1.15,2013-01-17 04:30:00,
2013-01-16 20:35:00,40.5,10.7,30.34,NNE,29,0.0,0.0,29,0.00,,,0.00,Wunderground v.1.15,2013-01-17 04:35:00,
2013-01-16 20:45:00,40.3,10.5,30.34,NNE,29,0.0,0.0,29,0.00,,,0.00,Wunderground v.1.15,2013-01-17 04:45:00,
2013-01-16 20:50:00,40.2,10.4,30.34,NNE,29,0.0,0.0,29,0.00,,,0.00,Wunderground v.1.15,2013-01-17 04:50:00,
2013-01-16 21:00:00,40.3,11.3,30.34,NNE,29,0.0,0.0,30,0.00,,,0.00,Wunderground v.1.15,2013-01-17 05:00:00,
2013-01-16 21:05:00,40.2,11.2,30.34,NNE,29,0.0,0.0,30,0.00,,,0.00,Wunderground v.1.15,2013-01-17 05:05:00,
2013-01-16 21:15:00,39.6,10.7,30.34,NNE,29,0.0,0.0,30,0.00,,,0.00,Wunderground v.1.15,2013-01-17 05:15:00,
2013-01-16 21:20:00,39.2,11.0,30.34,NNE,29,0.0,0.0,31,0.00,,,0.00,Wunderground v.1.15,2013-01-17 05:20:00,
2013-01-16 21:25:00,38.9,10.8,30.34,NNE,29,0.0,0.0,31,0.00,,,0.00,Wunderground v.1.15,2013-01-17 05:25:00,
2013-01-16 21:35:00,39.1,11.0,30.34,NNE,29,0.0,0.0,31,0.00,,,0.00,Wunderground v.1.15,2013-01-17 05:35:00,
2013-01-16 21:45:00,38.8,10.7,30.34,NNE,29,0.0,0.0,31,0.00,,,0.00,Wunderground v.1.15,2013-01-17 05:45:00,
2013-01-16 21:50:00,38.6,11.2,30.34,NNE,29,0.0,0.0,32,0.00,,,0.00,Wunderground v.1.15,2013-01-17 05:50:00,
2013-01-16 22:00:00,38.8,11.4,30.34,NNE,29,0.0,0.0,32,0.00,,,0.00,Wunderground v.1.15,2013-01-17 06:00:00,
2013-01-16 22:05:00,39.1,11.0,30.34,NNE,29,0.0,0.0,31,0.00,,,0.00,Wunderground v.1.15,2013-01-17 06:05:00,
2013-01-16 22:15:00,38.5,11.1,30.34,NNE,29,0.0,0.0,32,0.00,,,0.00,Wunderground v.1.15,2013-01-17 06:15:00,
2013-01-16 22:20:00,38.0,10.7,30.34,NNE,29,0.0,0.0,32,0.00,,,0.00,Wunderground v.1.15,2013-01-17 06:20:00,
2013-01-16 22:30:00,37.6,11.0,30.34,NNE,29,0.0,0.0,33,0.00,,,0.00,Wunderground v.1.15,2013-01-17 06:30:00,
2013-01-16 22:40:00,37.6,11.0,30.34,NNE,29,0.0,0.0,33,0.00,,,0.00,Wunderground v.1.15,2013-01-17 06:40:00,
2013-01-16 22:45:00,37.6,10.4,30.34,NNE,29,0.0,0.0,32,0.00,,,0.00,Wunderground v.1.15,2013-01-17 06:45:00,
2013-01-16 22:55:00,37.8,10.5,30.34,NNE,29,0.0,0.0,32,0.00,,,0.00,Wunderground v.1.15,2013-01-17 06:55:00,
2013-01-16 23:00:00,37.8,10.5,30.34,NE,34,0.0,0.0,32,0.00,,,0.00,Wunderground v.1.15,2013-01-17 07:00:00,
2013-01-16 23:05:00,37.5,10.3,30.34,NE,34,0.0,0.0,32,0.00,,,0.00,Wunderground v.1.15,2013-01-17 07:05:00,
2013-01-16 23:15:00,37.2,10.7,30.33,NE,34,0.0,0.0,33,0.00,,,0.00,Wunderground v.1.15,2013-01-17 07:15:00,
2013-01-16 23:20:00,36.9,10.4,30.33,NE,34,0.0,0.0,33,0.00,,,0.00,Wunderground v.1.15,2013-01-17 07:20:00,
2013-01-16 23:30:00,36.8,11.0,30.33,NE,34,0.0,0.0,34,0.00,,,0.00,Wunderground v.1.15,2013-01-17 07:30:00,
2013-01-16 23:40:00,36.6,10.2,30.33,NE,34,0.0,0.0,33,0.00,,,0.00,Wunderground v.1.15,2013-01-17 07:40:00,
2013-01-16 23:45:00,36.8,10.3,30.34,NE,34,0.0,0.0,33,0.00,,,0.00,Wunderground v.1.15,2013-01-17 07:45:00,
2013-01-16 23:55:00,37.9,10.6,30.34,NE,34,0.0,0.0,32,0.00,,,0.00,Wunderground v.1.15,2013-01-17 07:55:00,